Time;durP1;ratioP1;P1;durP2;ratioP2;P2;SDS_P1;SDS_P2;PMS_P1;PMS_P2;Temp;Humidity;BMP_temperature;BMP_pressure;BME280_temperature;BME280_humidity;BME280_pressure;Samples;Min_cycle;Max_cycle;Signal;HPM_P1;HPM_P2
2022/05/16 03:45:43;;;;;;;3.53;2.60;;;;;;;14.53;69.28;100702.25;5446992;27;20128;-82
2022/05/16 03:48:46;;;;;;;3.75;3.25;;;;;;;14.67;68.39;100701.31;5342740;33;34965;-81
2022/05/16 03:51:49;;;;;;;3.87;2.60;;;;;;;14.73;68.11;100708.66;5329750;33;31568;-82
2022/05/16 03:54:52;;;;;;;3.40;3.10;;;;;;;14.73;68.02;100705.94;5344859;33;34008;-82
2022/05/16 03:57:54;;;;;;;3.40;2.83;;;;;;;14.82;68.11;100703.91;5331589;33;31890;-82
2022/05/16 04:00:59;;;;;;;4.20;2.92;;;;;;;14.83;69.14;100699.34;5346361;33;33978;-82
2022/05/16 04:04:02;;;;;;;5.45;3.33;;;;;;;14.76;69.21;100710.12;5344102;33;33968;-82
2022/05/16 04:07:04;;;;;;;3.45;2.85;;;;;;;14.81;69.23;100714.97;5343790;33;33856;-85
2022/05/16 04:10:08;;;;;;;3.83;2.90;;;;;;;14.84;69.95;100720.00;5341265;33;33489;-85
2022/05/16 04:13:10;;;;;;;5.15;2.90;;;;;;;15.01;68.94;100715.97;5341587;33;33138;-86
2022/05/16 04:16:14;;;;;;;4.05;2.80;;;;;;;15.19;67.74;100712.72;5323900;33;32287;-86
2022/05/16 04:19:17;;;;;;;4.82;2.90;;;;;;;15.31;67.30;100710.28;5339813;27;32258;-85
2022/05/16 04:22:20;;;;;;;5.20;2.53;;;;;;;15.40;67.01;100715.34;5341220;33;31807;-86
2022/05/16 04:25:23;;;;;;;4.72;2.92;;;;;;;15.50;66.45;100724.97;5342579;33;33222;-86
2022/05/16 04:28:29;;;;;;;3.90;2.75;;;;;;;15.61;66.65;100725.22;5342667;33;33477;-82
2022/05/16 04:31:32;;;;;;;3.72;2.70;;;;;;;15.74;66.04;100729.09;5329463;33;33349;-82
2022/05/16 04:34:34;;;;;;;5.22;3.15;;;;;;;15.93;66.05;100727.47;5344344;33;34221;-82
2022/05/16 04:37:37;;;;;;;4.10;3.28;;;;;;;16.01;64.52;100727.28;5347596;33;33489;-82
2022/05/16 04:44:02;;;;;;;4.25;2.87;;;;;;;16.27;61.70;100734.66;5342189;33;33935;-82
2022/05/16 04:47:07;;;;;;;3.28;2.87;;;;;;;16.47;61.30;100732.81;5342616;33;33378;-82
2022/05/16 04:50:12;;;;;;;2.95;2.47;;;;;;;16.58;61.64;100722.34;5329327;33;32758;-82
2022/05/16 04:53:14;;;;;;;3.45;3.15;;;;;;;16.58;60.19;100733.22;5342305;33;33448;-82
2022/05/16 04:56:17;;;;;;;4.95;2.83;;;;;;;16.64;60.03;100735.94;5342107;33;33674;-82
2022/05/16 04:59:21;;;;;;;3.97;2.30;;;;;;;16.88;57.94;100739.13;5342184;33;33448;-81
2022/05/16 05:02:24;;;;;;;2.17;2.00;;;;;;;17.14;58.38;100741.81;5344483;33;34239;-81
2022/05/16 05:05:30;;;;;;;2.83;2.15;;;;;;;17.42;56.95;100727.91;5329448;33;32596;-81
2022/05/16 05:08:32;;;;;;;3.80;2.05;;;;;;;17.72;56.04;100734.69;5329135;33;32564;-81
2022/05/16 05:14:56;;;;;;;1.98;1.75;;;;;;;18.18;52.46;100733.66;5342518;33;33593;-81
2022/05/16 05:17:59;;;;;;;2.15;1.70;;;;;;;18.04;54.39;100731.00;5342494;33;33284;-81
2022/05/16 05:21:02;;;;;;;3.00;1.95;;;;;;;18.08;54.38;100740.44;5338543;33;32750;-81
2022/05/16 05:24:05;;;;;;;2.37;1.80;;;;;;;18.09;53.80;100731.19;5360537;33;33889;-81
2022/05/16 05:27:08;;;;;;;2.65;1.70;;;;;;;18.35;52.97;100732.91;5362457;33;33377;-81
2022/05/16 05:30:14;;;;;;;1.75;1.40;;;;;;;18.45;50.85;100728.84;5348853;33;32470;-81
2022/05/16 05:33:17;;;;;;;4.47;2.28;;;;;;;18.44;50.14;100730.75;5345415;33;33517;-81
2022/05/16 05:36:20;;;;;;;1.52;1.42;;;;;;;18.31;51.42;100728.97;5358186;33;33542;-81
2022/05/16 05:39:22;;;;;;;1.73;1.62;;;;;;;18.21;51.00;100738.69;5355067;33;31937;-82
2022/05/16 05:42:30;;;;;;;2.83;1.60;;;;;;;18.31;50.35;100741.75;5370818;33;33932;-81
2022/05/16 05:45:34;;;;;;;3.05;1.77;;;;;;;18.66;48.94;100741.28;5360438;33;33031;-80
2022/05/16 05:48:37;;;;;;;2.65;1.70;;;;;;;19.09;47.65;100740.50;5363714;33;34737;-80
2022/05/16 05:51:40;;;;;;;1.77;1.67;;;;;;;19.42;47.40;100748.34;5358612;33;34040;-81
2022/05/16 05:54:44;;;;;;;1.67;1.58;;;;;;;19.56;45.65;100741.66;5344792;33;32213;-81
2022/05/16 05:57:47;;;;;;;1.30;1.20;;;;;;;19.74;45.41;100740.03;5339898;33;32248;-81
2022/05/16 06:00:49;;;;;;;1.50;1.40;;;;;;;19.82;44.65;100742.44;5352915;33;33435;-81
2022/05/16 06:03:53;;;;;;;2.00;1.90;;;;;;;19.90;44.91;100742.13;5337435;33;32229;-85
2022/05/16 06:06:56;;;;;;;3.17;1.95;;;;;;;19.84;44.67;100743.06;5335651;33;31891;-85
2022/05/16 06:09:59;;;;;;;2.58;1.50;;;;;;;19.94;45.16;100746.06;5337891;33;32793;-85
2022/05/16 06:13:03;;;;;;;2.08;1.80;;;;;;;19.85;44.73;100752.91;5335567;33;31781;-81
2022/05/16 06:16:08;;;;;;;2.53;1.80;;;;;;;19.82;45.78;100750.62;5341759;33;32130;-81
2022/05/16 06:19:13;;;;;;;2.15;1.80;;;;;;;19.91;44.07;100752.81;5358513;33;33136;-81
2022/05/16 06:22:16;;;;;;;1.58;1.48;;;;;;;20.06;43.98;100757.88;5356817;33;34045;-80
2022/05/16 06:25:33;;;;;;;4.57;1.98;;;;;;;20.06;45.01;100746.09;5343202;33;33523;-81
2022/05/16 06:28:40;;;;;;;1.87;1.75;;;;;;;20.05;46.04;100750.75;5342763;33;31760;-81
2022/05/16 06:31:42;;;;;;;4.57;2.03;;;;;;;20.21;44.78;100749.28;5360945;33;31319;-82
2022/05/16 06:34:47;;;;;;;1.40;1.30;;;;;;;20.41;43.07;100743.50;5364773;33;32980;-82
2022/05/16 06:37:50;;;;;;;1.87;1.42;;;;;;;20.39;42.05;100735.53;5363824;33;31692;-81
2022/05/16 06:40:55;;;;;;;3.70;1.40;;;;;;;20.38;41.42;100742.06;5356685;33;33705;-82
2022/05/16 06:43:59;;;;;;;1.60;1.17;;;;;;;20.46;42.13;100740.91;5344657;33;32003;-82
2022/05/16 06:47:03;;;;;;;3.17;1.33;;;;;;;20.68;41.50;100734.88;5347630;33;31392;-82
2022/05/16 06:50:07;;;;;;;4.95;1.77;;;;;;;20.93;41.23;100735.50;5346010;33;32058;-82
2022/05/16 06:53:26;;;;;;;3.47;1.40;;;;;;;21.03;40.54;100734.91;5359036;33;32983;-82
2022/05/16 06:56:29;;;;;;;1.10;1.00;;;;;;;21.42;40.54;100735.28;5346663;33;32100;-82
2022/05/16 06:59:32;;;;;;;2.47;1.45;;;;;;;21.54;39.84;100735.25;5359884;33;33897;-82
2022/05/16 07:02:35;;;;;;;1.27;0.75;;;;;;;21.35;39.22;100742.75;5360365;33;34178;-82
2022/05/16 07:05:38;;;;;;;1.35;0.88;;;;;;;21.54;36.44;100747.03;5341692;33;33755;-82
2022/05/16 07:08:42;;;;;;;3.08;0.73;;;;;;;21.74;35.53;100741.16;5345354;33;32810;-82
2022/05/16 07:11:45;;;;;;;1.00;0.90;;;;;;;21.75;34.78;100737.34;5346562;33;32303;-82
2022/05/16 07:14:48;;;;;;;2.53;0.90;;;;;;;22.19;34.62;100751.38;5358289;33;34282;-82
2022/05/16 07:17:51;;;;;;;1.12;0.90;;;;;;;22.30;34.10;100736.78;5362563;33;33033;-82
2022/05/16 07:20:55;;;;;;;0.70;0.70;;;;;;;22.70;33.44;100744.06;5347018;33;32875;-81
2022/05/16 07:23:58;;;;;;;1.37;0.93;;;;;;;23.04;33.13;100741.31;5359069;33;33604;-81
2022/05/16 07:30:24;;;;;;;5.87;1.05;;;;;;;22.90;33.13;100738.03;5352084;33;31798;-81
2022/05/16 07:33:27;;;;;;;0.65;0.55;;;;;;;22.97;33.28;100740.66;5354471;33;32740;-79
2022/05/16 07:36:30;;;;;;;7.28;1.23;;;;;;;22.81;34.04;100737.63;5370026;33;33456;-81
2022/05/16 07:39:35;;;;;;;2.75;1.05;;;;;;;22.56;33.93;100735.31;5358667;33;31915;-84
2022/05/16 07:42:38;;;;;;;1.27;1.02;;;;;;;22.66;33.25;100737.38;5352318;33;31747;-84
2022/05/16 07:45:42;;;;;;;1.40;0.80;;;;;;;22.85;33.17;100740.72;5350112;33;32214;-84
2022/05/16 07:48:45;;;;;;;1.67;0.90;;;;;;;22.89;32.33;100733.66;5348621;33;32459;-81
2022/05/16 07:51:47;;;;;;;3.67;1.15;;;;;;;23.09;32.37;100738.66;5350114;33;31928;-81
2022/05/16 07:54:51;;;;;;;1.75;0.85;;;;;;;23.19;31.74;100732.47;5361069;33;33738;-81
2022/05/16 07:57:54;;;;;;;4.32;0.88;;;;;;;23.40;32.73;100737.19;5351237;33;31721;-81
2022/05/16 08:00:57;;;;;;;1.95;1.08;;;;;;;23.64;31.79;100737.75;5367887;33;36220;-82
2022/05/16 08:04:00;;;;;;;1.37;0.98;;;;;;;23.76;31.98;100735.72;5365244;33;33100;-84
2022/05/16 08:07:04;;;;;;;2.65;1.15;;;;;;;23.61;31.36;100741.00;5348545;33;31885;-84
2022/05/16 08:13:29;;;;;;;3.30;0.80;;;;;;;24.00;31.21;100740.94;5365518;33;34761;-81
2022/05/16 08:16:32;;;;;;;0.82;0.82;;;;;;;24.20;31.81;100746.66;5364101;33;34590;-82
2022/05/16 08:19:36;;;;;;;1.23;1.08;;;;;;;24.15;30.52;100730.09;5365021;33;33559;-81
2022/05/16 08:22:39;;;;;;;1.40;0.77;;;;;;;24.17;31.16;100733.44;5360736;33;33497;-81
2022/05/16 08:25:44;;;;;;;0.98;0.88;;;;;;;24.17;31.14;100732.59;5369481;33;34749;-82
2022/05/16 08:28:47;;;;;;;0.85;0.80;;;;;;;24.39;31.28;100729.78;5371565;33;33435;-82
2022/05/16 08:31:50;;;;;;;1.02;0.68;;;;;;;24.65;30.85;100739.13;5370971;33;34093;-82
2022/05/16 08:35:03;;;;;;;1.05;0.95;;;;;;;24.75;29.84;100735.66;5369990;33;33847;-82
2022/05/16 08:41:33;;;;;;;3.08;0.95;;;;;;;24.93;29.27;100734.41;5352638;33;31949;-82
2022/05/16 08:44:49;;;;;;;0.98;0.88;;;;;;;25.17;28.85;100740.38;5361402;33;33358;-82
2022/05/16 08:48:15;;;;;;;0.73;0.60;;;;;;;25.25;28.60;100737.12;5353522;33;32984;-82
2022/05/16 08:51:31;;;;;;;0.62;0.62;;;;;;;25.27;29.46;100730.25;5362622;33;33472;-85
2022/05/16 08:54:48;;;;;;;0.93;0.93;;;;;;;25.46;29.21;100730.59;5348429;33;31569;-82
2022/05/16 08:57:56;;;;;;;3.10;0.90;;;;;;;26.07;28.12;100721.75;5342723;33;31864;-82
2022/05/16 09:01:02;;;;;;;0.93;0.82;;;;;;;26.16;27.58;100722.88;5353077;33;32820;-80
2022/05/16 09:04:14;;;;;;;1.90;1.08;;;;;;;26.12;27.88;100726.44;5352005;33;33229;-81
2022/05/16 09:07:29;;;;;;;1.08;0.93;;;;;;;25.89;27.84;100717.56;5336725;33;32915;-81
2022/05/16 09:11:08;;;;;;;2.08;1.40;;;;;;;25.82;27.97;100728.00;5363792;33;33712;-81
2022/05/16 09:14:14;;;;;;;1.35;0.98;;;;;;;25.82;28.47;100727.16;5343575;33;33389;-84
2022/05/16 09:17:29;;;;;;;0.90;0.90;;;;;;;25.82;28.34;100724.41;5360800;33;34040;-84
2022/05/16 09:20:58;;;;;;;1.00;0.90;;;;;;;25.67;27.88;100719.66;5360170;33;33640;-84
2022/05/16 09:24:07;;;;;;;3.05;1.40;;;;;;;25.71;28.29;100726.28;5345973;33;32523;-84
2022/05/16 09:30:54;;;;;;;2.22;1.20;;;;;;;26.28;27.78;100717.09;5350268;33;34103;-82
2022/05/16 09:34:00;;;;;;;1.15;0.95;;;;;;;26.28;27.96;100707.97;5347532;33;31615;-82
2022/05/16 09:37:03;;;;;;;1.62;0.80;;;;;;;26.97;27.75;100709.34;5346717;33;34291;-82
2022/05/16 09:40:07;;;;;;;1.77;1.12;;;;;;;27.13;27.48;100705.44;5359814;33;33459;-82
2022/05/16 09:43:20;;;;;;;2.62;0.93;;;;;;;27.69;25.99;100699.72;5348004;33;31920;-82
2022/05/16 09:46:29;;;;;;;1.58;1.05;;;;;;;27.48;26.29;100695.41;5355932;33;35079;-81
2022/05/16 09:49:32;;;;;;;1.65;1.17;;;;;;;27.47;26.46;100688.25;5345614;33;31841;-81
2022/05/16 09:52:45;;;;;;;3.70;0.80;;;;;;;27.86;25.77;100684.75;5358785;33;32961;-82
2022/05/16 09:55:48;;;;;;;2.22;1.37;;;;;;;27.77;26.28;100684.47;5354411;33;33570;-82
2022/05/16 09:59:00;;;;;;;1.17;1.02;;;;;;;27.48;26.51;100687.13;5343583;33;32044;-82
2022/05/16 10:02:24;;;;;;;3.40;1.20;;;;;;;27.92;26.94;100680.84;5366377;33;33698;-82
2022/05/16 10:05:31;;;;;;;3.12;1.20;;;;;;;27.99;25.70;100668.34;5358424;33;34611;-81
2022/05/16 10:08:37;;;;;;;1.05;0.82;;;;;;;27.97;26.37;100676.09;5344465;33;31757;-82
2022/05/16 10:11:43;;;;;;;2.55;0.95;;;;;;;27.80;25.87;100670.09;5343433;33;31831;-82
2022/05/16 10:14:49;;;;;;;1.25;0.82;;;;;;;27.71;26.08;100669.03;5357965;33;34747;-81
2022/05/16 10:17:55;;;;;;;1.62;1.00;;;;;;;28.10;26.15;100666.31;5341871;33;31459;-83
2022/05/16 10:21:03;;;;;;;2.53;1.23;;;;;;;28.13;25.53;100668.50;5357158;33;33308;-89
2022/05/16 10:24:11;;;;;;;1.02;1.00;;;;;;;28.20;25.88;100655.16;5355796;33;33826;-86
2022/05/16 10:27:17;;;;;;;2.45;1.37;;;;;;;28.06;25.86;100656.12;5363560;33;33543;-82
2022/05/16 10:30:28;;;;;;;0.88;0.88;;;;;;;28.33;24.90;100652.84;5362073;33;33628;-82
2022/05/16 10:33:34;;;;;;;3.28;1.85;;;;;;;28.61;26.10;100654.84;5360946;33;34483;-82
2022/05/16 10:36:38;;;;;;;1.52;1.40;;;;;;;29.00;24.79;100648.31;5359659;33;34137;-82
2022/05/16 10:40:05;;;;;;;1.77;1.30;;;;;;;29.31;25.13;100647.97;5345451;33;33311;-82
2022/05/16 10:43:29;;;;;;;2.15;1.37;;;;;;;29.26;24.12;100648.06;5357641;33;33844;-84
2022/05/16 10:46:35;;;;;;;0.98;0.95;;;;;;;29.33;23.74;100652.09;5347135;33;33299;-85
2022/05/16 10:49:48;;;;;;;2.45;1.30;;;;;;;29.21;23.83;100657.25;5345847;33;33679;-84
2022/05/16 10:52:59;;;;;;;1.67;1.33;;;;;;;29.18;23.61;100657.84;5339568;33;33364;-84
2022/05/16 10:56:34;;;;;;;1.67;1.42;;;;;;;28.90;24.02;100646.50;5337354;33;31982;-83
2022/05/16 11:00:00;;;;;;;1.98;1.20;;;;;;;28.44;25.24;100655.25;5352718;33;33502;-82
2022/05/16 11:03:27;;;;;;;1.37;1.23;;;;;;;28.41;24.89;100652.22;5337598;33;32296;-81
2022/05/16 11:07:08;;;;;;;2.10;1.50;;;;;;;28.32;24.92;100646.47;5353279;33;32991;-80
2022/05/16 11:10:18;;;;;;;1.80;1.60;;;;;;;28.36;25.31;100639.25;5341015;33;31929;-80
2022/05/16 11:13:48;;;;;;;2.75;1.50;;;;;;;29.71;24.77;100629.97;5335892;33;32399;-78
2022/05/16 11:16:59;;;;;;;1.85;1.27;;;;;;;31.16;22.51;100632.78;5351022;33;34839;-79
2022/05/16 11:20:36;;;;;;;1.42;1.23;;;;;;;31.54;21.33;100624.22;5338473;33;33510;-80
2022/05/16 11:23:40;;;;;;;1.80;1.20;;;;;;;32.48;20.79;100609.41;5341838;33;34734;-80
2022/05/16 11:27:35;;;;;;;1.42;1.08;;;;;;;33.14;19.61;100612.34;5352634;33;34469;-78
2022/05/16 11:30:56;;;;;;;2.45;1.25;;;;;;;34.53;18.62;100605.94;5280532;33;34400;-78
2022/05/16 11:33:59;;;;;;;2.70;1.20;;;;;;;35.14;18.56;100600.97;5336612;33;31555;-79
2022/05/16 11:37:18;;;;;;;1.52;1.10;;;;;;;35.93;17.63;100598.41;5351677;33;33621;-79
2022/05/16 11:40:48;;;;;;;1.80;1.20;;;;;;;35.11;17.47;100595.22;5352214;33;33100;-79
2022/05/16 11:44:04;;;;;;;1.52;1.02;;;;;;;36.22;16.97;100591.88;5353296;33;34172;-79
2022/05/16 11:47:36;;;;;;;1.33;1.20;;;;;;;36.99;17.00;100597.72;5360596;33;32192;-80
2022/05/16 11:51:09;;;;;;;2.50;1.15;;;;;;;36.72;16.93;100593.63;5297454;33;32399;-79
2022/05/16 11:54:16;;;;;;;2.75;1.50;;;;;;;37.96;16.00;100591.50;5335047;33;34554;-81
2022/05/16 12:00:51;;;;;;;1.45;1.35;;;;;;;36.83;16.54;100576.31;5350511;33;33571;-79
2022/05/16 12:04:06;;;;;;;2.12;1.55;;;;;;;37.60;16.22;100580.00;5351167;33;33547;-79
2022/05/16 12:07:32;;;;;;;1.50;1.37;;;;;;;38.17;15.23;100566.75;5335757;33;33732;-80
2022/05/16 12:11:02;;;;;;;2.47;1.30;;;;;;;38.27;15.28;100557.81;5335660;33;34224;-80
2022/05/16 12:14:26;;;;;;;1.25;1.12;;;;;;;39.06;15.23;100556.19;5337072;33;31754;-80
2022/05/16 12:17:30;;;;;;;2.70;1.30;;;;;;;39.68;14.75;100552.34;5351343;33;33874;-80
2022/05/16 12:20:55;;;;;;;1.45;1.35;;;;;;;40.04;14.41;100552.25;5336823;33;32163;-80
2022/05/16 12:24:03;;;;;;;2.75;1.20;;;;;;;40.49;13.99;100542.22;5337984;33;31728;-79
2022/05/16 12:27:16;;;;;;;2.50;1.60;;;;;;;41.48;13.43;100544.97;5352868;33;33635;-80
2022/05/16 12:30:28;;;;;;;1.12;1.08;;;;;;;41.50;13.05;100536.88;5338853;33;31843;-80
2022/05/16 12:33:50;;;;;;;1.12;1.10;;;;;;;41.15;13.13;100535.19;5337197;33;32281;-80
2022/05/16 12:36:55;;;;;;;1.85;1.12;;;;;;;41.63;12.70;100532.63;5360976;33;33619;-80
2022/05/16 12:40:10;;;;;;;4.18;1.40;;;;;;;41.77;12.70;100531.16;5360680;33;34399;-79
2022/05/16 12:43:32;;;;;;;2.87;1.30;;;;;;;41.23;13.04;100514.31;5358905;33;33396;-81
2022/05/16 12:47:00;;;;;;;1.30;1.12;;;;;;;40.55;13.77;100518.94;5358915;33;34224;-80
2022/05/16 12:50:37;;;;;;;1.45;1.35;;;;;;;40.38;14.08;100498.88;5360323;33;33635;-80
2022/05/16 12:54:04;;;;;;;1.52;1.40;;;;;;;41.20;13.27;100503.78;5360717;33;33425;-80
2022/05/16 12:57:31;;;;;;;2.35;1.35;;;;;;;41.98;13.44;100491.81;5346652;33;31860;-80
2022/05/16 13:00:50;;;;;;;1.27;1.12;;;;;;;43.25;12.40;100487.50;5346862;33;33028;-80
2022/05/16 13:04:11;;;;;;;1.65;1.50;;;;;;;40.70;13.62;100485.31;5361456;33;32731;-83
2022/05/16 13:07:30;;;;;;;1.87;1.27;;;;;;;38.30;15.39;100475.53;5360267;33;223677;-84
2022/05/16 13:10:46;;;;;;;1.60;1.50;;;;;;;37.39;16.70;100483.84;5363481;33;33835;-83
2022/05/16 13:14:18;;;;;;;2.40;1.50;;;;;;;39.39;14.91;100462.78;5354395;33;33700;-84
2022/05/16 13:17:48;;;;;;;1.75;1.60;;;;;;;40.62;14.12;100470.25;5346794;33;32165;-88
2022/05/16 13:20:55;;;;;;;1.58;1.48;;;;;;;41.94;13.64;100451.34;5362363;33;33417;-84
2022/05/16 13:23:58;;;;;;;1.60;1.50;;;;;;;42.56;12.83;100457.16;5346376;33;31174;-84
2022/05/16 13:30:41;;;;;;;3.00;1.35;;;;;;;41.78;13.41;100453.63;5361368;33;33536;-84
2022/05/16 13:33:43;;;;;;;1.33;1.20;;;;;;;41.45;13.19;100453.25;5344413;33;32780;-83
2022/05/16 13:36:50;;;;;;;1.50;1.35;;;;;;;41.89;12.88;100457.41;5354833;33;32968;-83
2022/05/16 13:40:06;;;;;;;4.93;1.70;;;;;;;42.71;12.52;100443.06;5344479;33;32064;-83
2022/05/16 13:43:14;;;;;;;1.30;1.20;;;;;;;41.60;13.83;100454.25;5363390;33;33153;-83
2022/05/16 13:46:17;;;;;;;2.65;1.50;;;;;;;40.32;14.59;100445.59;5340951;33;31634;-85
2022/05/16 13:49:21;;;;;;;1.33;1.30;;;;;;;37.91;16.33;100449.19;5359529;33;34511;-84
2022/05/16 13:52:30;;;;;;;1.80;1.70;;;;;;;35.96;18.50;100442.78;5336695;33;31825;-83
2022/05/16 13:55:35;;;;;;;2.12;1.52;;;;;;;37.32;17.42;100439.50;5344443;33;32034;-84
2022/05/16 13:58:38;;;;;;;2.33;1.50;;;;;;;36.16;18.12;100441.09;5351211;33;31830;-83
2022/05/16 14:01:54;;;;;;;1.52;1.42;;;;;;;37.04;17.39;100435.91;5360895;33;33630;-83
2022/05/16 14:04:57;;;;;;;3.85;1.80;;;;;;;38.86;16.36;100440.72;5351805;33;31664;-83
2022/05/16 14:08:01;;;;;;;3.72;1.58;;;;;;;39.34;15.92;100432.88;5358996;33;32308;-83
2022/05/16 14:11:16;;;;;;;3.45;1.55;;;;;;;38.45;16.30;100430.91;5361912;33;33601;-86
2022/05/16 14:14:23;;;;;;;1.83;1.65;;;;;;;36.31;19.22;100438.41;5357885;33;34825;-83
2022/05/16 14:17:41;;;;;;;2.37;1.80;;;;;;;34.75;20.07;100423.09;5344128;33;33623;-82
2022/05/16 14:20:48;;;;;;;3.55;1.95;;;;;;;33.67;20.85;100429.00;5347805;33;31965;-82
2022/05/16 14:24:09;;;;;;;3.70;1.85;;;;;;;31.95;22.74;100426.38;5359913;33;33269;-82
2022/05/16 14:27:32;;;;;;;3.25;2.03;;;;;;;30.80;24.33;100425.03;5355376;33;33445;-82
2022/05/16 14:30:36;;;;;;;2.10;1.87;;;;;;;30.05;25.52;100429.84;5349555;33;31728;-81
2022/05/16 14:33:40;;;;;;;1.62;1.52;;;;;;;29.81;26.02;100424.47;5354155;33;32113;-81
2022/05/16 14:36:44;;;;;;;3.00;1.80;;;;;;;29.67;26.14;100418.06;5366879;33;33659;-82
2022/05/16 14:40:14;;;;;;;1.62;1.50;;;;;;;29.43;26.31;100414.56;5348054;33;33139;-82
2022/05/16 14:43:37;;;;;;;1.60;1.50;;;;;;;29.57;26.19;100416.25;5341137;33;33460;-81
2022/05/16 14:46:43;;;;;;;3.80;1.85;;;;;;;29.62;26.06;100412.59;5360952;33;33116;-81
2022/05/16 14:49:47;;;;;;;2.78;2.00;;;;;;;29.72;26.16;100417.13;5361423;33;33678;-81
2022/05/16 14:53:05;;;;;;;1.73;1.62;;;;;;;29.57;26.69;100409.84;5361795;33;34578;-81
2022/05/16 14:56:09;;;;;;;2.05;1.77;;;;;;;29.71;26.05;100404.38;5361661;33;33632;-83
2022/05/16 14:59:12;;;;;;;2.17;1.98;;;;;;;29.24;26.78;100409.03;5344088;33;31953;-81
2022/05/16 15:05:37;;;;;;;5.97;1.87;;;;;;;29.33;27.11;100401.69;5355804;33;32319;-80
2022/05/16 15:08:45;;;;;;;1.80;1.62;;;;;;;28.97;27.58;100393.91;5362824;33;33392;-81
2022/05/16 15:11:56;;;;;;;2.33;2.10;;;;;;;28.81;28.35;100401.62;5361043;33;33911;-81
2022/05/16 15:14:59;;;;;;;2.25;1.83;;;;;;;28.62;28.79;100400.78;5347380;33;32732;-81
2022/05/16 15:18:02;;;;;;;1.70;1.60;;;;;;;28.56;28.22;100397.25;5361351;33;33471;-82
2022/05/16 15:21:06;;;;;;;3.15;1.70;;;;;;;28.39;28.56;100394.94;5342782;33;32261;-82
2022/05/16 15:24:11;;;;;;;2.75;1.52;;;;;;;28.26;28.90;100388.19;5341310;33;32030;-82
2022/05/16 15:27:34;;;;;;;3.10;1.80;;;;;;;28.30;29.61;100380.13;5342884;33;33381;-82
2022/05/16 15:30:37;;;;;;;2.97;1.80;;;;;;;28.36;29.60;100389.19;5341772;33;32125;-82
2022/05/16 15:33:40;;;;;;;2.17;1.50;;;;;;;28.49;29.04;100380.19;5342903;33;33239;-82
2022/05/16 15:36:42;;;;;;;4.65;1.77;;;;;;;28.50;29.05;100370.75;5345328;33;34832;-82
2022/05/16 15:39:49;;;;;;;2.65;1.50;;;;;;;28.59;29.06;100374.50;5343165;33;33901;-81
2022/05/16 15:42:53;;;;;;;1.95;1.70;;;;;;;28.80;28.42;100368.66;5343328;33;33508;-82
2022/05/16 15:45:58;;;;;;;4.70;2.37;;;;;;;28.69;29.42;100371.59;5342529;33;33101;-82
2022/05/16 15:49:03;;;;;;;4.30;1.90;;;;;;;28.63;28.84;100364.47;5342919;33;33435;-82
2022/05/16 15:52:07;;;;;;;2.55;1.67;;;;;;;28.60;28.94;100362.28;5329363;33;32763;-82
2022/05/16 15:55:12;;;;;;;1.77;1.33;;;;;;;28.49;29.12;100363.59;5342374;33;33773;-82
2022/05/16 15:58:15;;;;;;;1.42;1.33;;;;;;;28.34;29.33;100356.25;5340859;33;32038;-82
2022/05/16 16:01:18;;;;;;;3.72;1.70;;;;;;;28.02;29.46;100352.22;5328525;33;33322;-82
